createdAt,value
2018-06-05T00:00:46.728Z,27.53
2018-06-05T00:03:14.163Z,26.77
2018-06-05T00:05:41.625Z,27.67
2018-06-05T00:08:09.301Z,28.60
2018-06-05T00:10:36.748Z,27.50
2018-06-05T00:13:04.281Z,28.63
2018-06-05T00:15:31.751Z,29.17
2018-06-05T00:17:59.229Z,30.77
2018-06-05T00:20:26.701Z,30.53
2018-06-05T00:22:54.111Z,29.60
2018-06-05T00:25:21.532Z,29.17
2018-06-05T00:27:49.125Z,30.37
2018-06-05T00:30:16.571Z,30.80
2018-06-05T00:32:44.412Z,30.60
2018-06-05T00:35:11.846Z,29.70
2018-06-05T00:37:39.318Z,30.93
2018-06-05T00:40:06.720Z,28.97
2018-06-05T00:42:34.187Z,29.50
2018-06-05T00:45:01.623Z,30.70
2018-06-05T00:47:29.249Z,30.43
2018-06-05T00:49:56.702Z,30.07
2018-06-05T00:52:25.331Z,28.53
2018-06-05T00:54:52.767Z,28.70
2018-06-05T00:57:20.190Z,29.73
2018-06-05T00:59:48.369Z,29.67
2018-06-05T01:02:17.107Z,30.40
2018-06-05T01:04:44.586Z,29.00
2018-06-05T01:07:11.974Z,28.00
2018-06-05T01:09:39.389Z,30.77
2018-06-05T01:12:06.775Z,29.47
2018-06-05T01:14:34.175Z,28.00
2018-06-05T01:17:01.579Z,30.47
2018-06-05T01:19:29.274Z,29.90
2018-06-05T01:21:56.865Z,28.33
2018-06-05T01:24:24.265Z,29.50
2018-06-05T01:26:51.683Z,29.80
2018-06-05T01:29:19.096Z,30.70
2018-06-05T01:31:46.495Z,29.77
2018-06-05T01:34:13.899Z,30.00
2018-06-05T01:36:41.309Z,31.00
2018-06-05T01:39:09.219Z,31.80
2018-06-05T01:41:37.011Z,29.47
2018-06-05T01:44:04.762Z,29.40
2018-06-05T01:46:32.187Z,30.40
2018-06-05T01:48:59.629Z,31.30
2018-06-05T01:51:27.105Z,29.13
2018-06-05T01:53:54.528Z,28.73
2018-06-05T01:56:22.061Z,30.43
2018-06-05T01:58:49.456Z,31.67
2018-06-05T02:01:16.870Z,30.10
2018-06-05T02:03:44.286Z,29.50
2018-06-05T02:06:11.790Z,30.50
2018-06-05T02:08:39.893Z,32.10
2018-06-05T02:11:07.316Z,29.90
2018-06-05T02:13:34.726Z,32.50
2018-06-05T02:16:02.180Z,30.30
2018-06-05T02:18:29.654Z,31.27
2018-06-05T02:20:57.080Z,32.20
2018-06-05T02:23:24.479Z,30.23
2018-06-05T02:25:52.002Z,30.60
2018-06-05T02:28:19.410Z,31.70
2018-06-05T02:30:46.941Z,32.80
2018-06-05T02:33:14.340Z,33.00
2018-06-05T02:35:41.774Z,33.27
2018-06-05T02:38:09.171Z,32.93
2018-06-05T02:40:36.620Z,33.17
2018-06-05T02:43:04.127Z,34.67
2018-06-05T02:45:31.736Z,33.33
2018-06-05T02:47:59.177Z,33.30
2018-06-05T02:50:26.607Z,35.97
2018-06-05T02:52:54.098Z,36.17
2018-06-05T02:55:21.578Z,35.93
2018-06-05T02:57:49.018Z,34.83
2018-06-05T03:00:16.460Z,36.93
2018-06-05T03:02:43.887Z,38.03
2018-06-05T03:05:11.292Z,38.67
2018-06-05T03:07:38.781Z,36.30
2018-06-05T03:10:06.700Z,37.30
2018-06-05T03:12:34.095Z,36.23
2018-06-05T03:15:01.480Z,35.50
2018-06-05T03:17:28.861Z,37.77
2018-06-05T03:19:56.266Z,37.57
2018-06-05T03:22:23.745Z,36.20
2018-06-05T03:24:51.124Z,35.97
2018-06-05T03:27:18.540Z,34.07
2018-06-05T03:29:46.224Z,35.37
2018-06-05T03:32:13.614Z,36.33
2018-06-05T03:34:40.982Z,35.40
2018-06-05T03:37:08.426Z,35.43
2018-06-05T03:39:35.823Z,36.63
2018-06-05T03:42:03.496Z,35.00
2018-06-05T03:44:30.884Z,35.73
2018-06-05T03:46:58.283Z,33.10
2018-06-05T03:49:26.078Z,36.07
2018-06-05T03:51:53.483Z,33.87
2018-06-05T03:54:20.936Z,33.50
2018-06-05T03:56:48.340Z,33.37
2018-06-05T03:59:16.112Z,33.67
2018-06-05T04:01:43.479Z,36.17
2018-06-05T04:04:10.888Z,38.30
2018-06-05T04:06:38.460Z,34.50
2018-06-05T04:09:06.319Z,37.07
2018-06-05T04:11:33.784Z,36.20
2018-06-05T04:14:01.276Z,39.20
2018-06-05T04:16:29.320Z,36.37
2018-06-05T04:18:56.712Z,37.87
2018-06-05T04:21:24.107Z,36.07
2018-06-05T04:23:51.532Z,37.23
2018-06-05T04:26:18.952Z,37.50
2018-06-05T04:28:46.360Z,39.00
2018-06-05T04:31:13.768Z,38.37
2018-06-05T04:33:41.331Z,40.00
2018-06-05T04:36:08.741Z,38.73
2018-06-05T04:38:36.186Z,40.67
2018-06-05T04:41:03.575Z,39.73
2018-06-05T04:43:31.002Z,41.77
2018-06-05T04:45:58.400Z,40.47
2018-06-05T04:48:25.772Z,39.20
2018-06-05T04:50:53.311Z,40.13
2018-06-05T04:53:20.847Z,38.70
2018-06-05T04:55:48.244Z,38.00
2018-06-05T04:58:15.651Z,37.90
2018-06-05T05:00:43.050Z,39.57
2018-06-05T05:03:10.507Z,39.53
2018-06-05T05:05:37.985Z,37.97
2018-06-05T05:08:05.425Z,37.67
2018-06-05T05:10:32.903Z,38.33
2018-06-05T05:13:00.608Z,36.90
2018-06-05T05:15:28.051Z,37.07
2018-06-05T05:17:55.457Z,36.30
2018-06-05T05:20:22.865Z,39.47
2018-06-05T05:22:50.332Z,38.37
2018-06-05T05:25:17.712Z,41.43
2018-06-05T05:27:45.543Z,38.57
2018-06-05T05:30:12.952Z,39.97
2018-06-05T05:32:40.430Z,38.83
2018-06-05T05:35:07.824Z,40.97
2018-06-05T05:37:35.216Z,43.67
2018-06-05T05:40:02.811Z,41.50
2018-06-05T05:42:30.219Z,39.33
2018-06-05T05:44:57.617Z,41.27
2018-06-05T05:47:25.001Z,40.13
2018-06-05T05:49:52.407Z,39.77
2018-06-05T05:52:19.803Z,41.23
2018-06-05T05:54:47.196Z,41.30
2018-06-05T05:57:14.606Z,40.67
2018-06-05T05:59:42.027Z,38.97
2018-06-05T06:02:10.573Z,40.40
2018-06-05T06:04:38.129Z,40.70
2018-06-05T06:07:05.547Z,38.23
2018-06-05T06:09:32.939Z,36.27
2018-06-05T06:12:00.707Z,38.03
2018-06-05T06:14:28.125Z,39.23
2018-06-05T06:16:55.663Z,35.37
2018-06-05T06:19:23.216Z,36.60
2018-06-05T06:21:50.646Z,35.97
2018-06-05T06:24:18.396Z,37.20
2018-06-05T06:26:45.820Z,34.73
2018-06-05T06:29:13.241Z,35.30
2018-06-05T06:31:40.719Z,34.87
2018-06-05T06:34:08.114Z,38.20
2018-06-05T06:36:35.540Z,35.53
2018-06-05T06:39:04.676Z,36.50
2018-06-05T06:41:32.104Z,35.33
2018-06-05T06:43:59.512Z,33.77
2018-06-05T06:46:26.911Z,35.80
2018-06-05T06:48:54.357Z,37.73
2018-06-05T06:51:21.690Z,33.90
2018-06-05T06:53:49.103Z,36.83
2018-06-05T06:56:16.506Z,36.20
2018-06-05T06:58:43.946Z,34.30
2018-06-05T07:01:11.371Z,37.90
2018-06-05T07:03:38.881Z,34.70
2018-06-05T07:06:06.233Z,31.63
2018-06-05T07:08:33.678Z,32.40
2018-06-05T07:11:01.183Z,32.60
2018-06-05T07:13:28.563Z,32.50
2018-06-05T07:15:56.002Z,32.47
2018-06-05T07:18:23.424Z,31.33
2018-06-05T07:20:50.832Z,31.47
2018-06-05T07:23:18.239Z,34.13
2018-06-05T07:25:45.639Z,35.70
2018-06-05T07:28:13.040Z,35.97
2018-06-05T07:30:40.601Z,34.80
2018-06-05T07:33:07.971Z,33.77
2018-06-05T07:35:35.414Z,35.13
2018-06-05T07:38:03.239Z,35.03
2018-06-05T07:40:30.700Z,36.20
2018-06-05T07:42:58.090Z,35.03
2018-06-05T07:45:25.632Z,36.53
2018-06-05T07:47:53.024Z,36.90
2018-06-05T07:50:20.403Z,36.33
2018-06-05T07:52:47.802Z,39.33
2018-06-05T07:55:15.209Z,40.67
2018-06-05T07:57:42.595Z,40.50
2018-06-05T08:00:10.127Z,41.03
2018-06-05T08:02:37.542Z,39.57
2018-06-05T08:05:05.091Z,40.00
2018-06-05T08:07:32.516Z,38.50
2018-06-05T08:10:00.350Z,39.63
2018-06-05T08:12:27.737Z,38.27
2018-06-05T08:14:55.172Z,39.10
2018-06-05T08:17:22.575Z,39.00
2018-06-05T08:19:49.978Z,38.47
2018-06-05T08:22:17.399Z,35.63
2018-06-05T08:24:44.844Z,37.87
2018-06-05T08:27:12.366Z,40.30
2018-06-05T08:29:42.486Z,44.10
2018-06-05T08:32:15.488Z,44.57
2018-06-05T08:34:42.939Z,43.43
2018-06-05T08:37:10.415Z,45.60
2018-06-05T08:39:37.841Z,40.30
2018-06-05T08:42:06.759Z,41.80
2018-06-05T08:44:34.167Z,42.73
2018-06-05T08:47:01.647Z,44.60
2018-06-05T08:49:29.086Z,47.43
2018-06-05T08:51:56.503Z,51.20
2018-06-05T08:54:28.547Z,46.20
2018-06-05T08:56:55.984Z,49.47
2018-06-05T08:59:23.441Z,48.40
2018-06-05T09:01:50.895Z,45.40
2018-06-05T09:04:18.368Z,44.63
2018-06-05T09:06:45.765Z,41.53
2018-06-05T09:09:17.622Z,41.20
2018-06-05T09:11:45.042Z,39.87
2018-06-05T09:14:12.440Z,37.83
2018-06-05T09:16:40.121Z,38.03
2018-06-05T09:19:07.619Z,37.67
2018-06-05T09:21:35.056Z,35.33
2018-06-05T09:24:02.503Z,37.10
2018-06-05T09:26:29.959Z,38.77
2018-06-05T09:28:57.408Z,40.27
2018-06-05T09:31:24.850Z,43.60
2018-06-05T09:33:52.255Z,45.87
2018-06-05T09:36:19.667Z,42.07
2018-06-05T09:38:47.054Z,43.10
2018-06-05T09:41:14.461Z,40.77
2018-06-05T09:43:41.835Z,37.80
2018-06-05T09:46:09.219Z,41.70
2018-06-05T09:48:36.619Z,40.93
2018-06-05T09:51:04.042Z,39.67
2018-06-05T09:53:31.464Z,36.40
2018-06-05T09:55:58.859Z,40.20
2018-06-05T09:58:26.538Z,38.50
2018-06-05T10:00:53.844Z,39.33
2018-06-05T10:03:21.255Z,41.63
2018-06-05T10:05:48.751Z,43.50
2018-06-05T10:08:16.253Z,41.87
2018-06-05T10:10:43.685Z,41.07
2018-06-05T10:13:11.079Z,35.00
2018-06-05T10:15:38.471Z,36.33
2018-06-05T10:18:05.991Z,36.93
2018-06-05T10:20:33.436Z,36.50
2018-06-05T10:23:00.828Z,37.07
2018-06-05T10:25:28.231Z,40.30
2018-06-05T10:27:55.683Z,40.93
2018-06-05T10:30:23.215Z,38.90
2018-06-05T10:32:55.207Z,37.60
2018-06-05T10:35:22.613Z,34.07
2018-06-05T10:37:50.006Z,35.67
2018-06-05T10:40:17.436Z,35.10
2018-06-05T10:42:44.831Z,38.23
2018-06-05T10:45:12.295Z,40.30
2018-06-05T10:47:39.725Z,38.70
2018-06-05T10:50:08.914Z,40.20
2018-06-05T10:52:36.410Z,40.37
2018-06-05T10:55:03.812Z,37.23
2018-06-05T10:57:31.274Z,37.60
2018-06-05T10:59:58.686Z,35.97
2018-06-05T11:02:31.031Z,38.10
2018-06-05T11:04:58.474Z,34.10
2018-06-05T11:07:25.864Z,34.63
2018-06-05T11:09:53.264Z,34.70
2018-06-05T11:12:20.776Z,35.23
2018-06-05T11:14:48.229Z,33.80
2018-06-05T11:17:19.308Z,36.40
2018-06-05T11:19:46.823Z,35.80
2018-06-05T11:22:14.220Z,37.70
2018-06-05T11:24:41.611Z,35.90
2018-06-05T11:27:09.020Z,35.87
2018-06-05T11:29:36.414Z,36.30
2018-06-05T11:32:07.547Z,35.60
2018-06-05T11:34:34.920Z,37.10
2018-06-05T11:37:02.348Z,36.80
2018-06-05T11:39:29.971Z,36.27
2018-06-05T11:41:57.380Z,36.20
2018-06-05T11:44:24.848Z,32.53
2018-06-05T11:46:55.932Z,33.63
2018-06-05T11:49:23.281Z,35.13
2018-06-05T11:51:50.784Z,33.47
2018-06-05T11:54:18.218Z,40.17
2018-06-05T11:56:45.599Z,37.30
2018-06-05T11:59:16.129Z,36.90
2018-06-05T12:01:44.898Z,40.03
2018-06-05T12:04:12.272Z,38.23
2018-06-05T12:06:39.753Z,39.00
2018-06-05T12:09:07.359Z,36.90
2018-06-05T12:11:34.755Z,38.30
2018-06-05T12:14:07.124Z,35.93
2018-06-05T12:16:34.564Z,38.20
2018-06-05T12:19:02.008Z,38.13
2018-06-05T12:21:30.166Z,40.00
2018-06-05T12:23:57.652Z,39.80
2018-06-05T12:26:25.062Z,39.63
2018-06-05T12:28:52.487Z,38.63
2018-06-05T12:31:21.416Z,33.40
2018-06-05T12:33:48.878Z,34.60
2018-06-05T12:36:16.295Z,31.77
2018-06-05T12:38:43.706Z,30.57
2018-06-05T12:41:11.234Z,33.13
2018-06-05T12:43:38.691Z,33.40
2018-06-05T12:46:09.556Z,31.53
2018-06-05T12:48:36.987Z,32.37
2018-06-05T12:51:04.483Z,30.03
2018-06-05T12:53:31.936Z,31.33
2018-06-05T12:55:59.348Z,27.70
2018-06-05T12:58:26.814Z,30.57
2018-06-05T13:00:54.252Z,30.60
2018-06-05T13:03:23.300Z,31.50
2018-06-05T13:05:51.823Z,31.73
2018-06-05T13:08:19.257Z,36.67
2018-06-05T13:10:46.686Z,35.83
2018-06-05T13:13:14.099Z,35.67
2018-06-05T13:15:41.547Z,35.60
2018-06-05T13:18:11.908Z,36.90
2018-06-05T13:20:39.405Z,38.67
2018-06-05T13:23:06.889Z,37.20
2018-06-05T13:25:34.230Z,38.13
2018-06-05T13:28:01.731Z,40.47
2018-06-05T13:30:29.140Z,43.20
2018-06-05T13:32:56.543Z,42.30
2018-06-05T13:35:23.959Z,43.50
2018-06-05T13:37:51.338Z,41.23
2018-06-05T13:40:18.723Z,44.60
2018-06-05T13:42:46.176Z,45.00
2018-06-05T13:45:13.595Z,45.30
2018-06-05T13:47:40.975Z,42.77
2018-06-05T13:50:08.405Z,49.63
2018-06-05T13:52:35.822Z,49.77
2018-06-05T13:55:03.403Z,50.23
2018-06-05T13:57:30.871Z,49.37
2018-06-05T13:59:58.287Z,47.37
2018-06-05T14:02:25.702Z,50.20
2018-06-05T14:04:53.244Z,49.90
2018-06-05T14:07:20.749Z,52.90
2018-06-05T14:09:48.175Z,51.53
2018-06-05T14:12:15.587Z,49.30
2018-06-05T14:14:43.131Z,50.87
2018-06-05T14:17:10.531Z,50.70
2018-06-05T14:19:38.036Z,46.83
2018-06-05T14:22:05.719Z,44.97
2018-06-05T14:24:33.139Z,42.87
2018-06-05T14:27:00.686Z,43.43
2018-06-05T14:29:28.074Z,44.27
2018-06-05T14:31:55.670Z,41.67
2018-06-05T14:34:23.118Z,40.23
2018-06-05T14:36:50.491Z,40.17
2018-06-05T14:39:17.875Z,43.47
2018-06-05T14:41:45.332Z,42.17
2018-06-05T14:44:12.749Z,45.70
2018-06-05T14:46:43.943Z,42.93
2018-06-05T14:49:11.344Z,40.57
2018-06-05T14:51:39.853Z,39.80
2018-06-05T14:54:07.282Z,36.13
2018-06-05T14:56:34.747Z,34.97
2018-06-05T14:59:05.682Z,36.30
2018-06-05T15:01:33.160Z,31.63
2018-06-05T15:04:00.552Z,27.80
2018-06-05T15:06:28.022Z,28.03
2018-06-05T15:08:55.464Z,31.37
2018-06-05T15:11:22.887Z,32.63
2018-06-05T15:13:54.214Z,31.80
2018-06-05T15:16:21.642Z,31.80
2018-06-05T15:18:49.107Z,31.10
2018-06-05T15:21:16.575Z,27.00
2018-06-05T15:23:44.131Z,29.43
2018-06-05T15:26:14.275Z,29.27
2018-06-05T15:28:46.122Z,29.47
2018-06-05T15:31:13.561Z,29.33
2018-06-05T15:33:43.883Z,32.37
2018-06-05T15:36:11.384Z,30.73
2018-06-05T15:38:38.904Z,30.87
2018-06-05T15:41:06.347Z,30.10
2018-06-05T15:43:35.917Z,30.73
2018-06-05T15:46:03.459Z,30.07
2018-06-05T15:48:31.510Z,32.67
2018-06-05T15:51:00.268Z,30.50
2018-06-05T15:53:27.684Z,33.00
2018-06-05T15:55:59.339Z,33.57
2018-06-05T15:58:26.847Z,32.93
2018-06-05T16:00:54.283Z,29.40
2018-06-05T16:03:21.701Z,31.13
2018-06-05T16:05:49.184Z,32.07
2018-06-05T16:08:17.640Z,30.80
2018-06-05T16:10:44.976Z,30.80
2018-06-05T16:13:12.396Z,32.23
2018-06-05T16:15:40.016Z,31.70
2018-06-05T16:18:07.440Z,28.27
2018-06-05T16:20:34.887Z,30.10
2018-06-05T16:23:02.354Z,31.03
2018-06-05T16:25:29.836Z,27.27
2018-06-05T16:27:57.298Z,29.60
2018-06-05T16:30:24.788Z,30.07
2018-06-05T16:32:52.415Z,30.93
2018-06-05T16:35:20.124Z,31.20
2018-06-05T16:37:47.553Z,28.27
2018-06-05T16:40:14.963Z,29.17
2018-06-05T16:42:42.420Z,29.43
2018-06-05T16:45:09.891Z,28.83
2018-06-05T16:47:37.288Z,28.60
2018-06-05T16:50:04.762Z,29.40
2018-06-05T16:52:32.253Z,30.40
2018-06-05T16:54:59.708Z,30.57
2018-06-05T16:57:27.169Z,28.60
2018-06-05T16:59:54.837Z,28.60
2018-06-05T17:02:22.300Z,31.40
2018-06-05T17:04:49.768Z,29.50
2018-06-05T17:07:17.480Z,28.93
2018-06-05T17:09:44.920Z,27.93
2018-06-05T17:12:12.341Z,29.40
2018-06-05T17:14:39.896Z,29.17
2018-06-05T17:17:07.346Z,28.23
2018-06-05T17:19:36.552Z,28.83
2018-06-05T17:22:04.037Z,30.63
2018-06-05T17:24:31.501Z,29.23
2018-06-05T17:26:58.936Z,28.80
2018-06-05T17:29:31.257Z,28.83
2018-06-05T17:31:58.659Z,30.90
2018-06-05T17:34:26.234Z,29.67
2018-06-05T17:36:53.773Z,29.50
2018-06-05T17:39:21.255Z,30.60
2018-06-05T17:41:48.672Z,30.90
2018-06-05T17:44:17.347Z,31.30
2018-06-05T17:46:44.739Z,31.97
2018-06-05T17:49:12.328Z,30.87
2018-06-05T17:51:39.979Z,30.40
2018-06-05T17:54:07.529Z,31.00
2018-06-05T17:56:34.942Z,33.43
2018-06-05T17:59:02.399Z,32.90
2018-06-05T18:01:30.164Z,31.83
2018-06-05T18:03:57.650Z,31.87
2018-06-05T18:06:25.016Z,32.43
2018-06-05T18:08:52.454Z,31.90
2018-06-05T18:11:19.879Z,32.57
2018-06-05T18:13:47.291Z,30.73
2018-06-05T18:16:15.028Z,31.90
2018-06-05T18:18:42.231Z,32.50
2018-06-05T18:21:09.586Z,32.03
2018-06-05T18:23:36.839Z,32.20
2018-06-05T18:26:04.188Z,32.93
2018-06-05T18:28:31.552Z,31.90
2018-06-05T18:30:58.767Z,31.33
2018-06-05T18:33:25.980Z,32.70
2018-06-05T18:35:54.688Z,31.20
2018-06-05T18:38:21.922Z,33.40
2018-06-05T18:40:49.181Z,32.43
2018-06-05T18:43:16.439Z,32.37
2018-06-05T18:45:45.308Z,31.90
2018-06-05T18:48:13.117Z,31.97
2018-06-05T18:50:40.395Z,31.77
2018-06-05T18:53:07.564Z,31.50
2018-06-05T18:55:34.911Z,33.37
2018-06-05T18:58:02.177Z,30.90
2018-06-05T19:00:29.487Z,32.50
2018-06-05T19:02:56.730Z,32.70
2018-06-05T19:05:23.950Z,29.90
2018-06-05T19:07:51.206Z,31.73
2018-06-05T19:10:18.415Z,32.27
2018-06-05T19:12:45.666Z,32.00
2018-06-05T19:15:12.915Z,31.90
2018-06-05T19:17:40.235Z,29.07
2018-06-05T19:20:07.479Z,30.73
2018-06-05T19:22:34.770Z,30.33
2018-06-05T19:25:01.989Z,29.60
2018-06-05T19:27:29.324Z,30.47
2018-06-05T19:29:56.565Z,30.23
2018-06-05T19:32:23.884Z,31.10
2018-06-05T19:34:51.144Z,30.40
2018-06-05T19:37:18.322Z,32.53
2018-06-05T19:39:45.640Z,31.00
2018-06-05T19:42:14.177Z,30.70
2018-06-05T19:44:41.543Z,30.23
2018-06-05T19:47:08.856Z,30.17
2018-06-05T19:49:36.104Z,28.80
2018-06-05T19:52:03.405Z,29.03
2018-06-05T19:54:30.601Z,30.03
2018-06-05T19:56:57.835Z,30.43
2018-06-05T19:59:25.211Z,31.27
2018-06-05T20:01:52.443Z,30.77
2018-06-05T20:04:19.631Z,31.60
2018-06-05T20:06:46.948Z,31.20
2018-06-05T20:09:14.196Z,32.23
2018-06-05T20:11:42.176Z,31.13
2018-06-05T20:14:09.441Z,30.50
2018-06-05T20:16:36.667Z,31.33
2018-06-05T20:19:03.860Z,30.50
2018-06-05T20:21:31.045Z,29.80
2018-06-05T20:23:58.256Z,31.53
2018-06-05T20:26:25.516Z,32.73
2018-06-05T20:28:52.747Z,31.20
2018-06-05T20:31:20.183Z,31.10
2018-06-05T20:33:47.480Z,32.60
2018-06-05T20:36:14.695Z,29.07
2018-06-05T20:38:41.908Z,30.43
2018-06-05T20:41:09.107Z,30.60
2018-06-05T20:43:36.423Z,31.33
2018-06-05T20:46:03.757Z,31.50
2018-06-05T20:48:30.972Z,31.60
2018-06-05T20:50:58.188Z,31.47
2018-06-05T20:53:25.463Z,31.80
2018-06-05T20:55:52.719Z,29.93
2018-06-05T20:58:20.478Z,33.00
2018-06-05T21:00:48.189Z,33.10
2018-06-05T21:03:16.315Z,30.37
2018-06-05T21:05:43.513Z,32.53
2018-06-05T21:08:10.735Z,32.30
2018-06-05T21:10:38.351Z,31.67
2018-06-05T21:13:05.562Z,32.13
2018-06-05T21:15:32.740Z,33.00
2018-06-05T21:17:59.992Z,32.93
2018-06-05T21:20:27.266Z,34.47
2018-06-05T21:22:54.585Z,33.00
2018-06-05T21:25:21.799Z,31.37
2018-06-05T21:27:49.079Z,31.27
2018-06-05T21:30:21.733Z,31.10
2018-06-05T21:32:50.228Z,31.17
2018-06-05T21:35:17.406Z,27.70
2018-06-05T21:37:44.605Z,32.50
2018-06-05T21:40:11.777Z,29.87
2018-06-05T21:42:39.191Z,28.50
2018-06-05T21:45:06.457Z,29.43
2018-06-05T21:47:33.680Z,31.60
2018-06-05T21:50:00.954Z,28.50
2018-06-05T21:52:28.141Z,31.10
2018-06-05T21:54:55.316Z,30.60
2018-06-05T21:57:22.746Z,30.40
2018-06-05T21:59:50.235Z,31.10
2018-06-05T22:02:17.732Z,31.03
2018-06-05T22:04:45.080Z,32.83
2018-06-05T22:07:12.509Z,32.60
2018-06-05T22:09:39.932Z,31.30
2018-06-05T22:12:11.758Z,32.77
2018-06-05T22:14:39.467Z,32.70
2018-06-05T22:17:06.865Z,32.70
2018-06-05T22:19:34.235Z,32.50
2018-06-05T22:22:01.729Z,30.47
2018-06-05T22:24:29.167Z,30.97
2018-06-05T22:26:56.623Z,32.47
2018-06-05T22:29:24.036Z,31.80
2018-06-05T22:31:51.430Z,30.63
2018-06-05T22:34:18.833Z,30.63
2018-06-05T22:36:46.209Z,31.83
2018-06-05T22:39:13.575Z,31.37
2018-06-05T22:41:41.107Z,33.07
2018-06-05T22:44:08.676Z,32.03
2018-06-05T22:46:36.062Z,31.07
2018-06-05T22:49:03.454Z,28.97
2018-06-05T22:51:30.843Z,30.43
2018-06-05T22:53:58.272Z,31.07
2018-06-05T22:56:26.104Z,31.10
2018-06-05T22:58:53.504Z,28.57
2018-06-05T23:01:20.895Z,29.23
2018-06-05T23:03:48.478Z,30.63
2018-06-05T23:06:15.976Z,31.50
2018-06-05T23:08:43.544Z,30.07
2018-06-05T23:11:10.963Z,29.97
2018-06-05T23:13:38.376Z,29.10
2018-06-05T23:16:05.764Z,32.03
2018-06-05T23:18:33.159Z,28.57
2018-06-05T23:21:00.588Z,28.90
2018-06-05T23:23:28.000Z,27.77
2018-06-05T23:25:55.414Z,30.60
2018-06-05T23:28:22.898Z,29.87
2018-06-05T23:30:50.850Z,29.73
2018-06-05T23:33:18.251Z,29.50
2018-06-05T23:35:45.607Z,29.83
2018-06-05T23:38:13.425Z,29.33
2018-06-05T23:40:40.811Z,27.53
2018-06-05T23:43:08.268Z,30.47
2018-06-05T23:45:35.648Z,30.33
2018-06-05T23:48:03.371Z,29.30
2018-06-05T23:50:30.785Z,32.13
2018-06-05T23:52:58.416Z,31.67
2018-06-05T23:55:25.924Z,29.70
2018-06-05T23:57:53.353Z,30.93
